sensor_id;sensor_type;location;lat;lon;timestamp;temperature;humidity
54126;DHT22;40360;52.992;6.796;2022-10-16T00:00:35;12.40;99.90
54126;DHT22;40360;52.992;6.796;2022-10-16T00:03:02;12.50;99.90
54126;DHT22;40360;52.992;6.796;2022-10-16T00:05:28;12.40;99.90
54126;DHT22;40360;52.992;6.796;2022-10-16T00:07:54;12.40;99.90
54126;DHT22;40360;52.992;6.796;2022-10-16T00:10:20;12.40;99.90
54126;DHT22;40360;52.992;6.796;2022-10-16T00:12:46;12.40;99.90
54126;DHT22;40360;52.992;6.796;2022-10-16T00:15:12;12.40;99.90
54126;DHT22;40360;52.992;6.796;2022-10-16T00:17:37;12.40;99.90
54126;DHT22;40360;52.992;6.796;2022-10-16T00:20:03;12.40;99.90
54126;DHT22;40360;52.992;6.796;2022-10-16T00:22:29;12.40;99.90
54126;DHT22;40360;52.992;6.796;2022-10-16T00:24:55;12.40;99.90
54126;DHT22;40360;52.992;6.796;2022-10-16T00:27:21;12.40;99.90
54126;DHT22;40360;52.992;6.796;2022-10-16T00:29:50;12.40;99.90
54126;DHT22;40360;52.992;6.796;2022-10-16T00:32:17;12.40;99.90
54126;DHT22;40360;52.992;6.796;2022-10-16T00:34:43;12.40;99.90
54126;DHT22;40360;52.992;6.796;2022-10-16T00:37:08;12.40;99.90
54126;DHT22;40360;52.992;6.796;2022-10-16T00:39:34;12.40;99.90
54126;DHT22;40360;52.992;6.796;2022-10-16T00:42:00;12.40;99.90
54126;DHT22;40360;52.992;6.796;2022-10-16T00:44:46;12.40;99.90
54126;DHT22;40360;52.992;6.796;2022-10-16T00:47:15;12.40;99.90
54126;DHT22;40360;52.992;6.796;2022-10-16T00:49:47;12.40;99.90
54126;DHT22;40360;52.992;6.796;2022-10-16T00:52:16;12.40;99.90
54126;DHT22;40360;52.992;6.796;2022-10-16T00:54:42;12.40;99.90
54126;DHT22;40360;52.992;6.796;2022-10-16T00:57:08;12.40;99.90
54126;DHT22;40360;52.992;6.796;2022-10-16T00:59:37;12.40;99.90
54126;DHT22;40360;52.992;6.796;2022-10-16T01:02:04;12.40;99.90
54126;DHT22;40360;52.992;6.796;2022-10-16T01:04:39;12.40;99.90
54126;DHT22;40360;52.992;6.796;2022-10-16T01:10:27;12.40;99.90
54126;DHT22;40360;52.992;6.796;2022-10-16T01:13:40;12.40;99.90
54126;DHT22;40360;52.992;6.796;2022-10-16T01:18:36;12.40;99.90
54126;DHT22;40360;52.992;6.796;2022-10-16T01:21:05;12.40;99.90
54126;DHT22;40360;52.992;6.796;2022-10-16T01:29:17;12.40;99.90
54126;DHT22;40360;52.992;6.796;2022-10-16T01:31:48;12.40;99.90
54126;DHT22;40360;52.992;6.796;2022-10-16T01:34:19;12.40;99.90
54126;DHT22;40360;52.992;6.796;2022-10-16T01:36:52;12.40;99.90
54126;DHT22;40360;52.992;6.796;2022-10-16T01:39:23;12.40;99.90
54126;DHT22;40360;52.992;6.796;2022-10-16T01:41:55;12.40;99.90
54126;DHT22;40360;52.992;6.796;2022-10-16T01:44:26;12.40;99.90
54126;DHT22;40360;52.992;6.796;2022-10-16T01:46:54;12.30;99.90
54126;DHT22;40360;52.992;6.796;2022-10-16T01:49:22;12.30;99.90
54126;DHT22;40360;52.992;6.796;2022-10-16T01:51:52;12.30;99.90
54126;DHT22;40360;52.992;6.796;2022-10-16T01:54:22;12.30;99.90
54126;DHT22;40360;52.992;6.796;2022-10-16T01:56:50;12.40;99.90
54126;DHT22;40360;52.992;6.796;2022-10-16T01:59:20;12.40;99.90
54126;DHT22;40360;52.992;6.796;2022-10-16T02:01:53;12.40;99.90
54126;DHT22;40360;52.992;6.796;2022-10-16T02:04:38;12.40;99.90
54126;DHT22;40360;52.992;6.796;2022-10-16T02:07:05;12.40;99.90
54126;DHT22;40360;52.992;6.796;2022-10-16T02:09:33;12.40;99.90
54126;DHT22;40360;52.992;6.796;2022-10-16T02:12:01;12.40;99.90
54126;DHT22;40360;52.992;6.796;2022-10-16T02:14:30;12.40;99.90
54126;DHT22;40360;52.992;6.796;2022-10-16T02:16:56;12.40;99.90
54126;DHT22;40360;52.992;6.796;2022-10-16T02:19:22;12.40;99.90
54126;DHT22;40360;52.992;6.796;2022-10-16T02:21:58;12.40;99.90
54126;DHT22;40360;52.992;6.796;2022-10-16T02:24:30;12.40;99.90
54126;DHT22;40360;52.992;6.796;2022-10-16T02:27:10;12.40;99.90
54126;DHT22;40360;52.992;6.796;2022-10-16T02:29:41;12.40;99.90
54126;DHT22;40360;52.992;6.796;2022-10-16T02:32:16;12.40;99.90
54126;DHT22;40360;52.992;6.796;2022-10-16T02:34:44;12.40;99.90
54126;DHT22;40360;52.992;6.796;2022-10-16T02:37:10;12.40;99.90
54126;DHT22;40360;52.992;6.796;2022-10-16T02:39:36;12.40;99.90
54126;DHT22;40360;52.992;6.796;2022-10-16T02:42:03;12.40;99.90
54126;DHT22;40360;52.992;6.796;2022-10-16T02:44:29;12.40;99.90
54126;DHT22;40360;52.992;6.796;2022-10-16T02:46:55;12.40;99.90
54126;DHT22;40360;52.992;6.796;2022-10-16T02:49:20;12.40;99.90
54126;DHT22;40360;52.992;6.796;2022-10-16T02:51:46;12.40;99.90
54126;DHT22;40360;52.992;6.796;2022-10-16T02:54:12;12.60;99.90
54126;DHT22;40360;52.992;6.796;2022-10-16T02:56:38;12.50;99.90
54126;DHT22;40360;52.992;6.796;2022-10-16T02:59:04;12.50;99.90
54126;DHT22;40360;52.992;6.796;2022-10-16T03:01:30;12.50;99.90
54126;DHT22;40360;52.992;6.796;2022-10-16T03:03:55;12.60;99.90
54126;DHT22;40360;52.992;6.796;2022-10-16T03:06:24;12.60;99.90
54126;DHT22;40360;52.992;6.796;2022-10-16T03:08:50;12.60;99.90
54126;DHT22;40360;52.992;6.796;2022-10-16T03:11:16;12.60;99.90
54126;DHT22;40360;52.992;6.796;2022-10-16T03:13:42;12.70;99.90
54126;DHT22;40360;52.992;6.796;2022-10-16T03:16:07;12.70;99.90
54126;DHT22;40360;52.992;6.796;2022-10-16T03:18:33;12.70;99.90
54126;DHT22;40360;52.992;6.796;2022-10-16T03:20:58;12.70;99.90
54126;DHT22;40360;52.992;6.796;2022-10-16T03:23:24;12.70;99.90
54126;DHT22;40360;52.992;6.796;2022-10-16T03:25:50;12.60;99.90
54126;DHT22;40360;52.992;6.796;2022-10-16T03:28:15;12.60;99.90
54126;DHT22;40360;52.992;6.796;2022-10-16T03:30:42;12.70;99.90
54126;DHT22;40360;52.992;6.796;2022-10-16T03:33:08;12.70;99.90
54126;DHT22;40360;52.992;6.796;2022-10-16T03:35:33;12.70;99.90
54126;DHT22;40360;52.992;6.796;2022-10-16T03:37:59;12.70;99.90
54126;DHT22;40360;52.992;6.796;2022-10-16T03:40:25;12.70;99.90
54126;DHT22;40360;52.992;6.796;2022-10-16T03:42:51;12.70;99.90
54126;DHT22;40360;52.992;6.796;2022-10-16T03:45:16;12.60;99.90
54126;DHT22;40360;52.992;6.796;2022-10-16T03:47:42;12.70;99.90
54126;DHT22;40360;52.992;6.796;2022-10-16T03:50:08;12.60;99.90
54126;DHT22;40360;52.992;6.796;2022-10-16T03:52:34;12.70;99.90
54126;DHT22;40360;52.992;6.796;2022-10-16T03:55:00;12.70;99.90
54126;DHT22;40360;52.992;6.796;2022-10-16T03:57:26;12.70;99.90
54126;DHT22;40360;52.992;6.796;2022-10-16T03:59:51;12.80;99.90
54126;DHT22;40360;52.992;6.796;2022-10-16T04:02:17;12.70;99.90
54126;DHT22;40360;52.992;6.796;2022-10-16T04:04:42;12.70;99.90
54126;DHT22;40360;52.992;6.796;2022-10-16T04:07:08;12.70;99.90
54126;DHT22;40360;52.992;6.796;2022-10-16T04:09:34;12.70;99.90
54126;DHT22;40360;52.992;6.796;2022-10-16T04:11:59;12.70;99.90
54126;DHT22;40360;52.992;6.796;2022-10-16T04:14:25;13.40;99.90
54126;DHT22;40360;52.992;6.796;2022-10-16T04:16:51;12.70;99.90
54126;DHT22;40360;52.992;6.796;2022-10-16T04:19:17;12.70;99.90
54126;DHT22;40360;52.992;6.796;2022-10-16T04:21:42;12.60;99.90
54126;DHT22;40360;52.992;6.796;2022-10-16T04:24:08;12.60;99.90
54126;DHT22;40360;52.992;6.796;2022-10-16T04:26:34;12.60;99.90
54126;DHT22;40360;52.992;6.796;2022-10-16T04:29:00;12.60;99.90
54126;DHT22;40360;52.992;6.796;2022-10-16T04:31:26;12.60;99.90
54126;DHT22;40360;52.992;6.796;2022-10-16T04:33:52;12.60;99.90
54126;DHT22;40360;52.992;6.796;2022-10-16T04:36:18;12.60;99.90
54126;DHT22;40360;52.992;6.796;2022-10-16T04:38:43;12.60;99.90
54126;DHT22;40360;52.992;6.796;2022-10-16T04:41:09;12.60;99.90
54126;DHT22;40360;52.992;6.796;2022-10-16T04:43:35;12.60;99.90
54126;DHT22;40360;52.992;6.796;2022-10-16T04:46:00;12.60;99.90
54126;DHT22;40360;52.992;6.796;2022-10-16T04:48:27;12.60;99.90
54126;DHT22;40360;52.992;6.796;2022-10-16T04:50:52;12.60;99.90
54126;DHT22;40360;52.992;6.796;2022-10-16T04:53:18;12.60;99.90
54126;DHT22;40360;52.992;6.796;2022-10-16T04:55:44;12.60;99.90
54126;DHT22;40360;52.992;6.796;2022-10-16T04:58:09;12.60;99.90
54126;DHT22;40360;52.992;6.796;2022-10-16T05:00:35;12.50;99.90
54126;DHT22;40360;52.992;6.796;2022-10-16T05:21:06;12.90;99.90
54126;DHT22;40360;52.992;6.796;2022-10-16T05:23:32;12.60;99.90
54126;DHT22;40360;52.992;6.796;2022-10-16T05:25:58;12.60;99.90
54126;DHT22;40360;52.992;6.796;2022-10-16T05:28:26;12.70;99.90
54126;DHT22;40360;52.992;6.796;2022-10-16T05:30:51;12.60;99.90
54126;DHT22;40360;52.992;6.796;2022-10-16T05:33:19;12.60;99.90
54126;DHT22;40360;52.992;6.796;2022-10-16T05:35:45;12.70;99.90
54126;DHT22;40360;52.992;6.796;2022-10-16T05:38:10;12.70;99.90
54126;DHT22;40360;52.992;6.796;2022-10-16T05:40:36;12.70;99.90
54126;DHT22;40360;52.992;6.796;2022-10-16T05:43:02;12.60;99.90
54126;DHT22;40360;52.992;6.796;2022-10-16T05:45:28;12.60;99.90
54126;DHT22;40360;52.992;6.796;2022-10-16T05:47:54;12.70;99.90
54126;DHT22;40360;52.992;6.796;2022-10-16T05:50:20;12.70;99.90
54126;DHT22;40360;52.992;6.796;2022-10-16T05:52:46;12.70;99.90
54126;DHT22;40360;52.992;6.796;2022-10-16T05:55:12;12.70;99.90
54126;DHT22;40360;52.992;6.796;2022-10-16T05:57:37;12.60;99.90
54126;DHT22;40360;52.992;6.796;2022-10-16T06:00:04;12.70;99.90
54126;DHT22;40360;52.992;6.796;2022-10-16T06:02:30;12.70;99.90
54126;DHT22;40360;52.992;6.796;2022-10-16T06:04:56;12.70;99.90
54126;DHT22;40360;52.992;6.796;2022-10-16T06:07:22;12.70;99.90
54126;DHT22;40360;52.992;6.796;2022-10-16T06:09:52;12.80;99.90
54126;DHT22;40360;52.992;6.796;2022-10-16T06:12:21;12.80;99.90
54126;DHT22;40360;52.992;6.796;2022-10-16T06:14:46;12.80;99.90
54126;DHT22;40360;52.992;6.796;2022-10-16T06:17:13;12.80;99.90
54126;DHT22;40360;52.992;6.796;2022-10-16T06:19:39;12.80;99.90
54126;DHT22;40360;52.992;6.796;2022-10-16T06:22:06;12.80;99.90
54126;DHT22;40360;52.992;6.796;2022-10-16T06:24:32;12.80;99.90
54126;DHT22;40360;52.992;6.796;2022-10-16T06:26:58;12.80;99.90
54126;DHT22;40360;52.992;6.796;2022-10-16T06:29:23;12.80;99.90
54126;DHT22;40360;52.992;6.796;2022-10-16T06:31:49;12.80;99.90
54126;DHT22;40360;52.992;6.796;2022-10-16T06:34:15;12.80;99.90
54126;DHT22;40360;52.992;6.796;2022-10-16T06:36:41;12.80;99.90
54126;DHT22;40360;52.992;6.796;2022-10-16T06:39:09;12.80;99.90
54126;DHT22;40360;52.992;6.796;2022-10-16T06:41:35;12.80;99.90
54126;DHT22;40360;52.992;6.796;2022-10-16T06:44:07;12.80;99.90
54126;DHT22;40360;52.992;6.796;2022-10-16T06:46:33;12.80;99.90
54126;DHT22;40360;52.992;6.796;2022-10-16T06:49:00;12.80;99.90
54126;DHT22;40360;52.992;6.796;2022-10-16T06:51:26;12.80;99.90
54126;DHT22;40360;52.992;6.796;2022-10-16T06:53:55;12.90;99.90
54126;DHT22;40360;52.992;6.796;2022-10-16T06:56:25;12.90;99.90
54126;DHT22;40360;52.992;6.796;2022-10-16T06:58:53;12.90;99.90
54126;DHT22;40360;52.992;6.796;2022-10-16T07:01:20;12.90;99.90
54126;DHT22;40360;52.992;6.796;2022-10-16T07:03:46;12.90;99.90
54126;DHT22;40360;52.992;6.796;2022-10-16T07:06:14;12.90;99.90
54126;DHT22;40360;52.992;6.796;2022-10-16T07:08:42;13.00;99.90
54126;DHT22;40360;52.992;6.796;2022-10-16T07:11:19;13.00;99.90
54126;DHT22;40360;52.992;6.796;2022-10-16T07:13:48;13.00;99.90
54126;DHT22;40360;52.992;6.796;2022-10-16T07:16:16;13.00;99.90
54126;DHT22;40360;52.992;6.796;2022-10-16T07:18:43;13.00;99.90
54126;DHT22;40360;52.992;6.796;2022-10-16T07:21:17;12.90;99.90
54126;DHT22;40360;52.992;6.796;2022-10-16T07:23:43;13.00;99.90
54126;DHT22;40360;52.992;6.796;2022-10-16T07:26:10;13.00;99.90
54126;DHT22;40360;52.992;6.796;2022-10-16T07:28:37;13.10;99.90
54126;DHT22;40360;52.992;6.796;2022-10-16T07:31:05;13.10;99.90
54126;DHT22;40360;52.992;6.796;2022-10-16T07:33:31;13.10;99.90
54126;DHT22;40360;52.992;6.796;2022-10-16T07:35:57;13.20;99.90
54126;DHT22;40360;52.992;6.796;2022-10-16T07:38:23;13.20;99.90
54126;DHT22;40360;52.992;6.796;2022-10-16T07:40:59;13.20;99.90
54126;DHT22;40360;52.992;6.796;2022-10-16T07:43:26;13.30;99.90
54126;DHT22;40360;52.992;6.796;2022-10-16T07:45:52;13.30;99.90
54126;DHT22;40360;52.992;6.796;2022-10-16T07:48:18;13.30;99.90
54126;DHT22;40360;52.992;6.796;2022-10-16T07:50:45;13.40;99.90
54126;DHT22;40360;52.992;6.796;2022-10-16T07:53:11;13.50;99.90
54126;DHT22;40360;52.992;6.796;2022-10-16T07:55:37;13.50;99.90
54126;DHT22;40360;52.992;6.796;2022-10-16T07:58:04;13.50;99.90
54126;DHT22;40360;52.992;6.796;2022-10-16T08:00:30;13.50;99.90
54126;DHT22;40360;52.992;6.796;2022-10-16T08:02:57;13.50;99.90
54126;DHT22;40360;52.992;6.796;2022-10-16T08:05:29;13.60;99.90
54126;DHT22;40360;52.992;6.796;2022-10-16T08:07:56;13.60;99.90
54126;DHT22;40360;52.992;6.796;2022-10-16T08:10:23;13.70;99.90
54126;DHT22;40360;52.992;6.796;2022-10-16T08:12:51;13.70;99.90
54126;DHT22;40360;52.992;6.796;2022-10-16T08:15:17;13.80;99.90
54126;DHT22;40360;52.992;6.796;2022-10-16T08:17:43;13.80;99.90
54126;DHT22;40360;52.992;6.796;2022-10-16T08:20:09;13.80;99.90
54126;DHT22;40360;52.992;6.796;2022-10-16T08:22:35;13.80;99.90
54126;DHT22;40360;52.992;6.796;2022-10-16T08:25:01;13.90;99.90
54126;DHT22;40360;52.992;6.796;2022-10-16T08:27:31;13.80;99.90
54126;DHT22;40360;52.992;6.796;2022-10-16T08:29:57;13.80;99.90
54126;DHT22;40360;52.992;6.796;2022-10-16T08:32:23;13.90;99.90
54126;DHT22;40360;52.992;6.796;2022-10-16T08:34:48;14.00;99.90
54126;DHT22;40360;52.992;6.796;2022-10-16T08:37:14;14.10;99.90
54126;DHT22;40360;52.992;6.796;2022-10-16T08:39:40;14.10;99.90
54126;DHT22;40360;52.992;6.796;2022-10-16T08:42:29;14.10;99.90
54126;DHT22;40360;52.992;6.796;2022-10-16T08:50:43;14.30;99.90
54126;DHT22;40360;52.992;6.796;2022-10-16T08:53:16;14.40;99.90
54126;DHT22;40360;52.992;6.796;2022-10-16T08:55:54;14.60;99.90
54126;DHT22;40360;52.992;6.796;2022-10-16T08:58:22;14.60;99.90
54126;DHT22;40360;52.992;6.796;2022-10-16T09:00:54;14.60;99.90
54126;DHT22;40360;52.992;6.796;2022-10-16T09:06:25;14.80;99.90
54126;DHT22;40360;52.992;6.796;2022-10-16T09:12:12;14.90;99.90
54126;DHT22;40360;52.992;6.796;2022-10-16T09:15:07;15.00;99.90
54126;DHT22;40360;52.992;6.796;2022-10-16T09:20:34;15.10;99.90
54126;DHT22;40360;52.992;6.796;2022-10-16T09:25:30;15.30;99.90
54126;DHT22;40360;52.992;6.796;2022-10-16T09:27:56;15.30;99.90
54126;DHT22;40360;52.992;6.796;2022-10-16T09:30:29;15.40;99.90
54126;DHT22;40360;52.992;6.796;2022-10-16T09:32:57;15.40;99.90
54126;DHT22;40360;52.992;6.796;2022-10-16T09:37:56;15.50;99.90
54126;DHT22;40360;52.992;6.796;2022-10-16T09:43:06;15.60;99.90
54126;DHT22;40360;52.992;6.796;2022-10-16T09:45:35;15.60;99.90
54126;DHT22;40360;52.992;6.796;2022-10-16T09:48:10;15.70;99.90
54126;DHT22;40360;52.992;6.796;2022-10-16T09:50:36;15.80;99.90
54126;DHT22;40360;52.992;6.796;2022-10-16T09:53:12;15.80;99.90
54126;DHT22;40360;52.992;6.796;2022-10-16T09:55:48;15.90;99.90
54126;DHT22;40360;52.992;6.796;2022-10-16T09:58:14;16.00;99.90
54126;DHT22;40360;52.992;6.796;2022-10-16T10:00:42;16.00;99.90
54126;DHT22;40360;52.992;6.796;2022-10-16T10:03:37;15.90;99.90
54126;DHT22;40360;52.992;6.796;2022-10-16T10:06:20;15.90;99.90
54126;DHT22;40360;52.992;6.796;2022-10-16T10:08:58;16.00;99.90
54126;DHT22;40360;52.992;6.796;2022-10-16T10:11:42;16.00;99.90
54126;DHT22;40360;52.992;6.796;2022-10-16T10:14:27;16.00;99.90
54126;DHT22;40360;52.992;6.796;2022-10-16T10:19:49;16.00;99.90
54126;DHT22;40360;52.992;6.796;2022-10-16T10:22:18;16.10;99.90
54126;DHT22;40360;52.992;6.796;2022-10-16T10:24:59;16.00;99.90
54126;DHT22;40360;52.992;6.796;2022-10-16T10:30:39;15.90;99.90
54126;DHT22;40360;52.992;6.796;2022-10-16T10:36:03;16.10;99.90
54126;DHT22;40360;52.992;6.796;2022-10-16T10:41:20;16.20;99.90
54126;DHT22;40360;52.992;6.796;2022-10-16T10:47:08;16.40;99.90
54126;DHT22;40360;52.992;6.796;2022-10-16T10:55:45;16.30;99.90
54126;DHT22;40360;52.992;6.796;2022-10-16T11:06:30;16.60;99.90
54126;DHT22;40360;52.992;6.796;2022-10-16T11:11:35;16.60;99.90
54126;DHT22;40360;52.992;6.796;2022-10-16T11:14:17;16.70;99.90
54126;DHT22;40360;52.992;6.796;2022-10-16T11:22:31;16.70;99.90
54126;DHT22;40360;52.992;6.796;2022-10-16T11:27:58;16.90;99.90
54126;DHT22;40360;52.992;6.796;2022-10-16T11:30:27;16.90;99.90
54126;DHT22;40360;52.992;6.796;2022-10-16T11:38:27;16.90;99.90
54126;DHT22;40360;52.992;6.796;2022-10-16T11:40:58;16.90;99.90
54126;DHT22;40360;52.992;6.796;2022-10-16T11:43:38;17.00;99.90
54126;DHT22;40360;52.992;6.796;2022-10-16T11:46:11;16.90;99.90
54126;DHT22;40360;52.992;6.796;2022-10-16T11:48:50;16.90;99.90
54126;DHT22;40360;52.992;6.796;2022-10-16T11:51:36;16.70;99.90
54126;DHT22;40360;52.992;6.796;2022-10-16T11:56:49;16.50;99.90
54126;DHT22;40360;52.992;6.796;2022-10-16T11:59:22;16.40;99.90
54126;DHT22;40360;52.992;6.796;2022-10-16T12:04:58;16.60;99.90
54126;DHT22;40360;52.992;6.796;2022-10-16T12:07:34;16.70;99.90
54126;DHT22;40360;52.992;6.796;2022-10-16T12:10:23;16.90;99.90
54126;DHT22;40360;52.992;6.796;2022-10-16T12:12:50;17.00;99.90
54126;DHT22;40360;52.992;6.796;2022-10-16T12:17:50;17.00;99.90
54126;DHT22;40360;52.992;6.796;2022-10-16T12:22:53;16.90;99.90
54126;DHT22;40360;52.992;6.796;2022-10-16T12:25:35;16.90;99.90
54126;DHT22;40360;52.992;6.796;2022-10-16T12:30:36;17.00;99.90
54126;DHT22;40360;52.992;6.796;2022-10-16T12:33:05;16.90;99.90
54126;DHT22;40360;52.992;6.796;2022-10-16T12:35:35;16.80;99.90
54126;DHT22;40360;52.992;6.796;2022-10-16T12:38:14;16.60;99.90
54126;DHT22;40360;52.992;6.796;2022-10-16T12:40:42;16.50;99.90
54126;DHT22;40360;52.992;6.796;2022-10-16T12:43:35;16.50;99.90
54126;DHT22;40360;52.992;6.796;2022-10-16T12:48:28;16.50;99.90
54126;DHT22;40360;52.992;6.796;2022-10-16T12:50:54;16.60;99.90
54126;DHT22;40360;52.992;6.796;2022-10-16T12:53:22;16.70;99.90
54126;DHT22;40360;52.992;6.796;2022-10-16T12:56:05;16.70;99.90
54126;DHT22;40360;52.992;6.796;2022-10-16T12:58:51;16.80;99.90
54126;DHT22;40360;52.992;6.796;2022-10-16T13:07:17;16.70;99.90
54126;DHT22;40360;52.992;6.796;2022-10-16T13:10:10;16.80;99.90
54126;DHT22;40360;52.992;6.796;2022-10-16T13:16:38;16.80;99.90
54126;DHT22;40360;52.992;6.796;2022-10-16T13:18:56;16.80;99.90
54126;DHT22;40360;52.992;6.796;2022-10-16T13:21:29;16.70;99.90
54126;DHT22;40360;52.992;6.796;2022-10-16T13:24:02;16.60;99.90
54126;DHT22;40360;52.992;6.796;2022-10-16T13:29:01;16.40;99.90
54126;DHT22;40360;52.992;6.796;2022-10-16T13:31:28;16.30;99.90
54126;DHT22;40360;52.992;6.796;2022-10-16T13:33:57;16.30;99.90
54126;DHT22;40360;52.992;6.796;2022-10-16T13:36:29;16.20;99.90
54126;DHT22;40360;52.992;6.796;2022-10-16T13:41:31;16.20;99.90
54126;DHT22;40360;52.992;6.796;2022-10-16T13:43:57;16.20;99.90
54126;DHT22;40360;52.992;6.796;2022-10-16T13:46:24;16.30;99.90
54126;DHT22;40360;52.992;6.796;2022-10-16T13:48:58;16.40;99.90
54126;DHT22;40360;52.992;6.796;2022-10-16T13:51:25;16.50;99.90
54126;DHT22;40360;52.992;6.796;2022-10-16T13:53:51;16.50;99.90
54126;DHT22;40360;52.992;6.796;2022-10-16T13:56:19;16.50;99.90
54126;DHT22;40360;52.992;6.796;2022-10-16T13:58:45;16.40;99.90
54126;DHT22;40360;52.992;6.796;2022-10-16T14:01:20;16.40;99.90
54126;DHT22;40360;52.992;6.796;2022-10-16T14:03:48;16.40;99.90
54126;DHT22;40360;52.992;6.796;2022-10-16T14:06:22;16.30;99.90
54126;DHT22;40360;52.992;6.796;2022-10-16T14:11:25;16.30;99.90
54126;DHT22;40360;52.992;6.796;2022-10-16T14:13:52;16.30;99.90
54126;DHT22;40360;52.992;6.796;2022-10-16T14:16:23;16.40;99.90
54126;DHT22;40360;52.992;6.796;2022-10-16T14:19:00;16.40;99.90
54126;DHT22;40360;52.992;6.796;2022-10-16T14:21:27;16.50;99.90
54126;DHT22;40360;52.992;6.796;2022-10-16T14:23:53;16.40;99.90
54126;DHT22;40360;52.992;6.796;2022-10-16T14:26:23;16.40;99.90
54126;DHT22;40360;52.992;6.796;2022-10-16T14:29:03;16.40;99.90
54126;DHT22;40360;52.992;6.796;2022-10-16T14:31:32;16.40;99.90
54126;DHT22;40360;52.992;6.796;2022-10-16T14:33:59;16.40;99.90
54126;DHT22;40360;52.992;6.796;2022-10-16T14:36:27;16.40;99.90
54126;DHT22;40360;52.992;6.796;2022-10-16T14:39:00;16.30;99.90
54126;DHT22;40360;52.992;6.796;2022-10-16T14:41:28;16.20;99.90
54126;DHT22;40360;52.992;6.796;2022-10-16T14:44:02;16.20;99.90
54126;DHT22;40360;52.992;6.796;2022-10-16T14:46:35;16.20;99.90
54126;DHT22;40360;52.992;6.796;2022-10-16T14:51:41;16.20;99.90
54126;DHT22;40360;52.992;6.796;2022-10-16T14:54:09;16.20;99.90
54126;DHT22;40360;52.992;6.796;2022-10-16T14:59:42;16.10;99.90
54126;DHT22;40360;52.992;6.796;2022-10-16T15:02:30;16.10;99.90
54126;DHT22;40360;52.992;6.796;2022-10-16T15:04:57;16.10;99.90
54126;DHT22;40360;52.992;6.796;2022-10-16T15:07:24;16.10;99.90
54126;DHT22;40360;52.992;6.796;2022-10-16T15:09:51;16.10;99.90
54126;DHT22;40360;52.992;6.796;2022-10-16T15:12:17;16.00;99.90
54126;DHT22;40360;52.992;6.796;2022-10-16T15:14:43;16.10;99.90
54126;DHT22;40360;52.992;6.796;2022-10-16T15:17:10;16.00;99.90
54126;DHT22;40360;52.992;6.796;2022-10-16T15:19:36;16.00;99.90
54126;DHT22;40360;52.992;6.796;2022-10-16T15:22:02;16.00;99.90
54126;DHT22;40360;52.992;6.796;2022-10-16T15:24:28;16.00;99.90
54126;DHT22;40360;52.992;6.796;2022-10-16T15:26:53;16.00;99.90
54126;DHT22;40360;52.992;6.796;2022-10-16T15:29:19;15.90;99.90
54126;DHT22;40360;52.992;6.796;2022-10-16T15:31:44;15.90;99.90
54126;DHT22;40360;52.992;6.796;2022-10-16T15:34:13;15.80;99.90
54126;DHT22;40360;52.992;6.796;2022-10-16T15:36:39;15.80;99.90
54126;DHT22;40360;52.992;6.796;2022-10-16T15:39:16;15.80;99.90
54126;DHT22;40360;52.992;6.796;2022-10-16T15:41:42;15.70;99.90
54126;DHT22;40360;52.992;6.796;2022-10-16T15:44:08;15.70;99.90
54126;DHT22;40360;52.992;6.796;2022-10-16T15:46:34;15.60;99.90
54126;DHT22;40360;52.992;6.796;2022-10-16T15:49:00;15.60;99.90
54126;DHT22;40360;52.992;6.796;2022-10-16T15:51:26;15.50;99.90
54126;DHT22;40360;52.992;6.796;2022-10-16T15:53:56;15.40;99.90
54126;DHT22;40360;52.992;6.796;2022-10-16T15:56:22;15.40;99.90
54126;DHT22;40360;52.992;6.796;2022-10-16T15:58:48;15.20;99.90
54126;DHT22;40360;52.992;6.796;2022-10-16T16:01:14;15.20;99.90
54126;DHT22;40360;52.992;6.796;2022-10-16T16:03:39;15.10;99.90
54126;DHT22;40360;52.992;6.796;2022-10-16T16:06:08;15.10;99.90
54126;DHT22;40360;52.992;6.796;2022-10-16T16:08:34;15.00;99.90
54126;DHT22;40360;52.992;6.796;2022-10-16T16:11:08;14.90;99.90
54126;DHT22;40360;52.992;6.796;2022-10-16T16:13:34;14.80;99.90
54126;DHT22;40360;52.992;6.796;2022-10-16T16:16:15;14.70;99.90
54126;DHT22;40360;52.992;6.796;2022-10-16T16:18:42;14.70;99.90
54126;DHT22;40360;52.992;6.796;2022-10-16T16:21:10;14.60;99.90
54126;DHT22;40360;52.992;6.796;2022-10-16T16:23:36;14.50;99.90
54126;DHT22;40360;52.992;6.796;2022-10-16T16:28:30;14.40;99.90
54126;DHT22;40360;52.992;6.796;2022-10-16T16:30:56;14.30;99.90
54126;DHT22;40360;52.992;6.796;2022-10-16T16:33:21;14.30;99.90
54126;DHT22;40360;52.992;6.796;2022-10-16T16:35:47;14.20;99.90
54126;DHT22;40360;52.992;6.796;2022-10-16T16:38:13;14.10;99.90
54126;DHT22;40360;52.992;6.796;2022-10-16T16:40:38;14.10;99.90
54126;DHT22;40360;52.992;6.796;2022-10-16T16:43:04;14.00;99.90
54126;DHT22;40360;52.992;6.796;2022-10-16T16:45:30;14.00;99.90
54126;DHT22;40360;52.992;6.796;2022-10-16T16:47:55;13.90;99.90
54126;DHT22;40360;52.992;6.796;2022-10-16T16:50:21;13.80;99.90
54126;DHT22;40360;52.992;6.796;2022-10-16T16:52:46;13.70;99.90
54126;DHT22;40360;52.992;6.796;2022-10-16T16:55:12;13.70;99.90
54126;DHT22;40360;52.992;6.796;2022-10-16T16:57:38;13.60;99.90
54126;DHT22;40360;52.992;6.796;2022-10-16T17:00:04;13.50;99.90
54126;DHT22;40360;52.992;6.796;2022-10-16T17:02:30;13.40;99.90
54126;DHT22;40360;52.992;6.796;2022-10-16T17:04:56;13.40;99.90
54126;DHT22;40360;52.992;6.796;2022-10-16T17:07:22;13.40;99.90
54126;DHT22;40360;52.992;6.796;2022-10-16T17:09:50;13.30;99.90
54126;DHT22;40360;52.992;6.796;2022-10-16T17:12:16;13.30;99.90
54126;DHT22;40360;52.992;6.796;2022-10-16T17:14:41;13.20;99.90
54126;DHT22;40360;52.992;6.796;2022-10-16T17:17:07;13.20;99.90
54126;DHT22;40360;52.992;6.796;2022-10-16T17:19:32;13.20;99.90
54126;DHT22;40360;52.992;6.796;2022-10-16T17:21:58;13.20;99.90
54126;DHT22;40360;52.992;6.796;2022-10-16T17:24:24;13.10;99.90
54126;DHT22;40360;52.992;6.796;2022-10-16T17:26:50;13.10;99.90
54126;DHT22;40360;52.992;6.796;2022-10-16T17:29:19;13.10;99.90
54126;DHT22;40360;52.992;6.796;2022-10-16T17:31:45;13.00;99.90
54126;DHT22;40360;52.992;6.796;2022-10-16T17:34:11;12.90;99.90
54126;DHT22;40360;52.992;6.796;2022-10-16T17:36:38;12.80;99.90
54126;DHT22;40360;52.992;6.796;2022-10-16T17:39:10;12.70;99.90
54126;DHT22;40360;52.992;6.796;2022-10-16T17:41:36;12.70;99.90
54126;DHT22;40360;52.992;6.796;2022-10-16T17:44:04;12.60;99.90
54126;DHT22;40360;52.992;6.796;2022-10-16T17:46:30;12.60;99.90
54126;DHT22;40360;52.992;6.796;2022-10-16T17:48:56;12.60;99.90
54126;DHT22;40360;52.992;6.796;2022-10-16T17:51:25;12.50;99.90
54126;DHT22;40360;52.992;6.796;2022-10-16T17:53:54;12.50;99.90
54126;DHT22;40360;52.992;6.796;2022-10-16T17:56:21;12.50;99.90
54126;DHT22;40360;52.992;6.796;2022-10-16T17:58:49;12.50;99.90